Midland, Texas
Current Conditions -  °F | °C
As of 2:55 AM on Friday 24 Oct 2014 (Local Time) from KMDD Reporting Station
Clear Clear  
Wind Chill: 63°   Ceiling: Unl
Heat Index: 63°   Visibility: 7mi
Dew Point: 59°   Wind: 5mph
Humidity: 89%   Direction: 190°S
Pressure: 30.15"   Gusts: NA
Location:  32°N, 102.07°W
Report Text: KMDD 240755Z AUTO 19004KT 7SM CLR 17/15 A3015 RMK AO2 T01700151
Loading
Personal Weather Stations






























Interactive Weather Map New forecast layout! Learn more

10-Day Weather Forecast

Advertisements
Track Severe Weather on mobile